sensor_id;sensor_type;location;lat;lon;timestamp;temperature;humidity
26909;DHT22;14477;51.038;4.588;2023-04-25T00:01:31;11.30;99.90
26909;DHT22;14477;51.038;4.588;2023-04-25T00:03:59;11.40;99.90
26909;DHT22;14477;51.038;4.588;2023-04-25T00:06:24;11.30;99.90
26909;DHT22;14477;51.038;4.588;2023-04-25T00:08:53;11.30;99.90
26909;DHT22;14477;51.038;4.588;2023-04-25T00:11:19;11.40;99.90
26909;DHT22;14477;51.038;4.588;2023-04-25T00:13:45;11.40;99.90
26909;DHT22;14477;51.038;4.588;2023-04-25T00:16:11;11.40;99.90
26909;DHT22;14477;51.038;4.588;2023-04-25T00:18:41;11.40;99.90
26909;DHT22;14477;51.038;4.588;2023-04-25T00:21:07;11.40;99.90
26909;DHT22;14477;51.038;4.588;2023-04-25T00:23:33;11.40;99.90
26909;DHT22;14477;51.038;4.588;2023-04-25T00:26:01;11.40;99.90
26909;DHT22;14477;51.038;4.588;2023-04-25T00:28:27;11.40;99.90
26909;DHT22;14477;51.038;4.588;2023-04-25T00:30:52;11.40;99.90
26909;DHT22;14477;51.038;4.588;2023-04-25T00:33:18;11.40;99.90
26909;DHT22;14477;51.038;4.588;2023-04-25T00:35:44;11.40;99.90
26909;DHT22;14477;51.038;4.588;2023-04-25T00:38:10;11.40;99.90
26909;DHT22;14477;51.038;4.588;2023-04-25T00:40:36;11.40;99.90
26909;DHT22;14477;51.038;4.588;2023-04-25T00:43:01;11.40;99.90
26909;DHT22;14477;51.038;4.588;2023-04-25T00:45:28;11.40;99.90
26909;DHT22;14477;51.038;4.588;2023-04-25T00:47:57;11.40;99.90
26909;DHT22;14477;51.038;4.588;2023-04-25T00:50:23;11.30;99.90
26909;DHT22;14477;51.038;4.588;2023-04-25T00:52:49;11.30;99.90
26909;DHT22;14477;51.038;4.588;2023-04-25T00:55:15;11.30;99.90
26909;DHT22;14477;51.038;4.588;2023-04-25T00:57:42;11.30;99.90
26909;DHT22;14477;51.038;4.588;2023-04-25T01:00:08;11.30;99.90
26909;DHT22;14477;51.038;4.588;2023-04-25T01:02:40;11.30;99.90
26909;DHT22;14477;51.038;4.588;2023-04-25T01:05:07;11.30;99.90
26909;DHT22;14477;51.038;4.588;2023-04-25T01:07:34;11.30;99.90
26909;DHT22;14477;51.038;4.588;2023-04-25T01:09:59;11.20;99.90
26909;DHT22;14477;51.038;4.588;2023-04-25T01:12:25;11.20;99.90
26909;DHT22;14477;51.038;4.588;2023-04-25T01:14:51;11.20;99.90
26909;DHT22;14477;51.038;4.588;2023-04-25T01:17:18;11.20;99.90
26909;DHT22;14477;51.038;4.588;2023-04-25T01:19:43;11.20;99.90
26909;DHT22;14477;51.038;4.588;2023-04-25T01:22:11;11.20;99.90
26909;DHT22;14477;51.038;4.588;2023-04-25T01:24:37;11.20;99.90
26909;DHT22;14477;51.038;4.588;2023-04-25T01:27:03;11.20;99.90
26909;DHT22;14477;51.038;4.588;2023-04-25T01:29:31;11.20;99.90
26909;DHT22;14477;51.038;4.588;2023-04-25T01:31:58;11.10;99.90
26909;DHT22;14477;51.038;4.588;2023-04-25T01:34:24;11.10;99.90
26909;DHT22;14477;51.038;4.588;2023-04-25T01:36:51;11.10;99.90
26909;DHT22;14477;51.038;4.588;2023-04-25T01:39:19;11.10;99.90
26909;DHT22;14477;51.038;4.588;2023-04-25T01:41:49;11.20;99.90
26909;DHT22;14477;51.038;4.588;2023-04-25T01:44:15;11.10;99.90
26909;DHT22;14477;51.038;4.588;2023-04-25T01:46:41;11.10;99.90
26909;DHT22;14477;51.038;4.588;2023-04-25T01:49:07;11.10;99.90
26909;DHT22;14477;51.038;4.588;2023-04-25T01:51:33;11.10;99.90
26909;DHT22;14477;51.038;4.588;2023-04-25T01:53:59;11.10;99.90
26909;DHT22;14477;51.038;4.588;2023-04-25T01:56:30;11.10;99.90
26909;DHT22;14477;51.038;4.588;2023-04-25T01:58:56;11.00;99.90
26909;DHT22;14477;51.038;4.588;2023-04-25T02:01:22;11.00;99.90
26909;DHT22;14477;51.038;4.588;2023-04-25T02:03:48;11.00;99.90
26909;DHT22;14477;51.038;4.588;2023-04-25T02:06:14;11.00;99.90
26909;DHT22;14477;51.038;4.588;2023-04-25T02:08:39;10.90;99.90
26909;DHT22;14477;51.038;4.588;2023-04-25T02:11:05;10.90;99.90
26909;DHT22;14477;51.038;4.588;2023-04-25T02:13:31;10.90;99.90
26909;DHT22;14477;51.038;4.588;2023-04-25T02:15:57;10.90;99.90
26909;DHT22;14477;51.038;4.588;2023-04-25T02:18:23;10.90;99.90
26909;DHT22;14477;51.038;4.588;2023-04-25T02:20:49;10.80;99.90
26909;DHT22;14477;51.038;4.588;2023-04-25T02:23:15;10.80;99.90
26909;DHT22;14477;51.038;4.588;2023-04-25T02:25:41;10.80;99.90
26909;DHT22;14477;51.038;4.588;2023-04-25T02:28:07;10.80;99.90
26909;DHT22;14477;51.038;4.588;2023-04-25T02:30:33;10.80;99.90
26909;DHT22;14477;51.038;4.588;2023-04-25T02:32:59;10.80;99.90
26909;DHT22;14477;51.038;4.588;2023-04-25T02:35:25;10.80;99.90
26909;DHT22;14477;51.038;4.588;2023-04-25T02:37:51;10.80;99.90
26909;DHT22;14477;51.038;4.588;2023-04-25T02:40:16;10.80;99.90
26909;DHT22;14477;51.038;4.588;2023-04-25T02:42:42;10.80;99.90
26909;DHT22;14477;51.038;4.588;2023-04-25T02:45:10;10.80;99.90
26909;DHT22;14477;51.038;4.588;2023-04-25T02:47:36;10.80;99.90
26909;DHT22;14477;51.038;4.588;2023-04-25T02:50:02;10.80;99.90
26909;DHT22;14477;51.038;4.588;2023-04-25T02:52:28;10.80;99.90
26909;DHT22;14477;51.038;4.588;2023-04-25T02:54:54;10.80;99.90
26909;DHT22;14477;51.038;4.588;2023-04-25T02:57:20;10.70;99.90
26909;DHT22;14477;51.038;4.588;2023-04-25T02:59:46;10.80;99.90
26909;DHT22;14477;51.038;4.588;2023-04-25T03:02:12;10.80;99.90
26909;DHT22;14477;51.038;4.588;2023-04-25T03:04:37;10.70;99.90
26909;DHT22;14477;51.038;4.588;2023-04-25T03:07:03;10.70;99.90
26909;DHT22;14477;51.038;4.588;2023-04-25T03:09:29;10.70;99.90
26909;DHT22;14477;51.038;4.588;2023-04-25T03:11:55;10.70;99.90
26909;DHT22;14477;51.038;4.588;2023-04-25T03:14:21;10.60;99.90
26909;DHT22;14477;51.038;4.588;2023-04-25T03:16:46;10.60;99.90
26909;DHT22;14477;51.038;4.588;2023-04-25T03:19:12;10.60;99.90
26909;DHT22;14477;51.038;4.588;2023-04-25T03:21:41;10.50;99.90
26909;DHT22;14477;51.038;4.588;2023-04-25T03:24:07;10.50;99.90
26909;DHT22;14477;51.038;4.588;2023-04-25T03:26:33;10.50;99.90
26909;DHT22;14477;51.038;4.588;2023-04-25T03:28:59;10.40;99.90
26909;DHT22;14477;51.038;4.588;2023-04-25T03:31:24;10.40;99.90
26909;DHT22;14477;51.038;4.588;2023-04-25T03:33:50;10.40;99.90
26909;DHT22;14477;51.038;4.588;2023-04-25T03:36:16;10.30;99.90
26909;DHT22;14477;51.038;4.588;2023-04-25T03:38:43;10.30;99.90
26909;DHT22;14477;51.038;4.588;2023-04-25T03:41:08;10.30;99.90
26909;DHT22;14477;51.038;4.588;2023-04-25T03:43:34;10.30;99.90
26909;DHT22;14477;51.038;4.588;2023-04-25T03:46:00;10.30;99.90
26909;DHT22;14477;51.038;4.588;2023-04-25T03:48:26;10.30;99.90
26909;DHT22;14477;51.038;4.588;2023-04-25T03:50:53;10.30;99.90
26909;DHT22;14477;51.038;4.588;2023-04-25T03:53:18;10.20;99.90
26909;DHT22;14477;51.038;4.588;2023-04-25T03:55:45;10.20;99.90
26909;DHT22;14477;51.038;4.588;2023-04-25T03:58:10;10.20;99.90
26909;DHT22;14477;51.038;4.588;2023-04-25T04:00:36;10.10;99.90
26909;DHT22;14477;51.038;4.588;2023-04-25T04:03:02;10.20;99.90
26909;DHT22;14477;51.038;4.588;2023-04-25T04:05:28;10.10;99.90
26909;DHT22;14477;51.038;4.588;2023-04-25T04:07:54;10.10;99.90
26909;DHT22;14477;51.038;4.588;2023-04-25T04:10:21;10.10;99.90
26909;DHT22;14477;51.038;4.588;2023-04-25T04:12:46;10.10;99.90
26909;DHT22;14477;51.038;4.588;2023-04-25T04:15:13;10.20;99.90
26909;DHT22;14477;51.038;4.588;2023-04-25T04:17:39;10.10;99.90
26909;DHT22;14477;51.038;4.588;2023-04-25T04:20:05;10.10;99.90
26909;DHT22;14477;51.038;4.588;2023-04-25T04:22:31;10.10;99.90
26909;DHT22;14477;51.038;4.588;2023-04-25T04:24:57;10.10;99.90
26909;DHT22;14477;51.038;4.588;2023-04-25T04:27:23;10.10;99.90
26909;DHT22;14477;51.038;4.588;2023-04-25T04:29:49;10.10;99.90
26909;DHT22;14477;51.038;4.588;2023-04-25T04:32:19;10.10;99.90
26909;DHT22;14477;51.038;4.588;2023-04-25T04:34:44;10.10;99.90
26909;DHT22;14477;51.038;4.588;2023-04-25T04:37:13;10.10;99.90
26909;DHT22;14477;51.038;4.588;2023-04-25T04:39:39;10.10;99.90
26909;DHT22;14477;51.038;4.588;2023-04-25T04:42:05;10.10;99.90
26909;DHT22;14477;51.038;4.588;2023-04-25T04:44:31;10.10;99.90
26909;DHT22;14477;51.038;4.588;2023-04-25T04:46:58;10.10;99.90
26909;DHT22;14477;51.038;4.588;2023-04-25T04:49:24;10.10;99.90
26909;DHT22;14477;51.038;4.588;2023-04-25T04:51:50;10.10;99.90
26909;DHT22;14477;51.038;4.588;2023-04-25T04:54:16;10.10;99.90
26909;DHT22;14477;51.038;4.588;2023-04-25T04:56:42;10.10;99.90
26909;DHT22;14477;51.038;4.588;2023-04-25T04:59:08;10.10;99.90
26909;DHT22;14477;51.038;4.588;2023-04-25T05:01:34;10.10;99.90
26909;DHT22;14477;51.038;4.588;2023-04-25T05:04:02;10.10;99.90
26909;DHT22;14477;51.038;4.588;2023-04-25T05:06:29;10.10;99.90
26909;DHT22;14477;51.038;4.588;2023-04-25T05:08:57;10.10;99.90
26909;DHT22;14477;51.038;4.588;2023-04-25T05:11:24;10.00;99.90
26909;DHT22;14477;51.038;4.588;2023-04-25T05:13:52;10.10;99.90
26909;DHT22;14477;51.038;4.588;2023-04-25T05:16:18;10.10;99.90
26909;DHT22;14477;51.038;4.588;2023-04-25T05:18:44;10.10;99.90
26909;DHT22;14477;51.038;4.588;2023-04-25T05:21:10;10.10;99.90
26909;DHT22;14477;51.038;4.588;2023-04-25T05:23:36;10.10;99.90
26909;DHT22;14477;51.038;4.588;2023-04-25T05:26:02;10.10;99.90
26909;DHT22;14477;51.038;4.588;2023-04-25T05:28:28;10.10;99.90
26909;DHT22;14477;51.038;4.588;2023-04-25T05:30:53;10.10;99.90
26909;DHT22;14477;51.038;4.588;2023-04-25T05:33:19;10.20;99.90
26909;DHT22;14477;51.038;4.588;2023-04-25T05:35:45;10.20;99.90
26909;DHT22;14477;51.038;4.588;2023-04-25T05:38:11;10.20;99.90
26909;DHT22;14477;51.038;4.588;2023-04-25T05:40:37;10.20;99.90
26909;DHT22;14477;51.038;4.588;2023-04-25T05:43:03;10.20;99.90
26909;DHT22;14477;51.038;4.588;2023-04-25T05:45:28;10.30;99.90
26909;DHT22;14477;51.038;4.588;2023-04-25T05:47:54;10.30;99.90
26909;DHT22;14477;51.038;4.588;2023-04-25T05:50:20;10.40;99.90
26909;DHT22;14477;51.038;4.588;2023-04-25T05:52:46;10.40;99.90
26909;DHT22;14477;51.038;4.588;2023-04-25T05:55:12;10.40;99.90
26909;DHT22;14477;51.038;4.588;2023-04-25T05:57:37;10.50;99.90
26909;DHT22;14477;51.038;4.588;2023-04-25T06:00:08;10.50;99.90
26909;DHT22;14477;51.038;4.588;2023-04-25T06:02:35;10.50;99.90
26909;DHT22;14477;51.038;4.588;2023-04-25T06:05:01;10.60;99.90
26909;DHT22;14477;51.038;4.588;2023-04-25T06:07:29;10.60;99.90
26909;DHT22;14477;51.038;4.588;2023-04-25T06:09:55;10.70;99.90
26909;DHT22;14477;51.038;4.588;2023-04-25T06:12:21;10.70;99.90
26909;DHT22;14477;51.038;4.588;2023-04-25T06:14:46;10.80;99.90
26909;DHT22;14477;51.038;4.588;2023-04-25T06:17:12;10.80;99.90
26909;DHT22;14477;51.038;4.588;2023-04-25T06:19:38;10.80;99.90
26909;DHT22;14477;51.038;4.588;2023-04-25T06:22:04;10.90;99.90
26909;DHT22;14477;51.038;4.588;2023-04-25T06:24:30;10.90;99.90
26909;DHT22;14477;51.038;4.588;2023-04-25T06:26:55;10.90;99.90
26909;DHT22;14477;51.038;4.588;2023-04-25T06:29:21;10.90;99.90
26909;DHT22;14477;51.038;4.588;2023-04-25T06:31:47;11.00;99.90
26909;DHT22;14477;51.038;4.588;2023-04-25T06:34:13;11.00;99.90
26909;DHT22;14477;51.038;4.588;2023-04-25T06:36:39;11.00;99.90
26909;DHT22;14477;51.038;4.588;2023-04-25T06:39:06;11.00;99.90
26909;DHT22;14477;51.038;4.588;2023-04-25T06:41:32;11.10;99.90
26909;DHT22;14477;51.038;4.588;2023-04-25T06:43:58;11.10;99.90
26909;DHT22;14477;51.038;4.588;2023-04-25T06:46:23;11.20;99.90
26909;DHT22;14477;51.038;4.588;2023-04-25T06:48:49;11.20;99.90
26909;DHT22;14477;51.038;4.588;2023-04-25T06:51:15;11.20;99.90
26909;DHT22;14477;51.038;4.588;2023-04-25T06:53:41;11.30;99.90
26909;DHT22;14477;51.038;4.588;2023-04-25T06:56:07;11.40;99.90
26909;DHT22;14477;51.038;4.588;2023-04-25T06:58:32;11.40;99.90
26909;DHT22;14477;51.038;4.588;2023-04-25T07:00:58;11.50;99.90
26909;DHT22;14477;51.038;4.588;2023-04-25T07:03:23;11.60;99.90
26909;DHT22;14477;51.038;4.588;2023-04-25T07:05:50;11.60;99.90
26909;DHT22;14477;51.038;4.588;2023-04-25T07:08:16;11.70;99.90
26909;DHT22;14477;51.038;4.588;2023-04-25T07:10:42;11.80;99.90
26909;DHT22;14477;51.038;4.588;2023-04-25T07:13:08;11.90;99.90
26909;DHT22;14477;51.038;4.588;2023-04-25T07:15:34;11.90;99.90
26909;DHT22;14477;51.038;4.588;2023-04-25T07:18:00;12.00;99.90
26909;DHT22;14477;51.038;4.588;2023-04-25T07:20:26;12.10;99.90
26909;DHT22;14477;51.038;4.588;2023-04-25T07:22:53;12.10;99.90
26909;DHT22;14477;51.038;4.588;2023-04-25T07:25:19;12.10;99.90
26909;DHT22;14477;51.038;4.588;2023-04-25T07:27:45;12.20;99.90
26909;DHT22;14477;51.038;4.588;2023-04-25T07:30:11;12.20;99.90
26909;DHT22;14477;51.038;4.588;2023-04-25T07:32:38;12.30;99.90
26909;DHT22;14477;51.038;4.588;2023-04-25T07:35:04;12.30;99.90
26909;DHT22;14477;51.038;4.588;2023-04-25T07:37:33;12.40;99.90
26909;DHT22;14477;51.038;4.588;2023-04-25T07:39:58;12.30;99.90
26909;DHT22;14477;51.038;4.588;2023-04-25T07:42:24;12.30;99.90
26909;DHT22;14477;51.038;4.588;2023-04-25T07:44:50;12.30;99.90
26909;DHT22;14477;51.038;4.588;2023-04-25T07:47:17;12.30;99.90
26909;DHT22;14477;51.038;4.588;2023-04-25T07:49:44;12.30;99.90
26909;DHT22;14477;51.038;4.588;2023-04-25T07:52:12;12.20;99.90
26909;DHT22;14477;51.038;4.588;2023-04-25T07:54:38;12.20;99.90
26909;DHT22;14477;51.038;4.588;2023-04-25T07:57:04;12.20;99.90
26909;DHT22;14477;51.038;4.588;2023-04-25T07:59:32;12.20;99.90
26909;DHT22;14477;51.038;4.588;2023-04-25T08:01:58;12.30;99.90
26909;DHT22;14477;51.038;4.588;2023-04-25T08:04:24;12.30;99.90
26909;DHT22;14477;51.038;4.588;2023-04-25T08:06:51;12.40;99.90
26909;DHT22;14477;51.038;4.588;2023-04-25T08:09:17;12.50;99.90
26909;DHT22;14477;51.038;4.588;2023-04-25T08:11:43;12.60;99.90
26909;DHT22;14477;51.038;4.588;2023-04-25T08:14:09;12.80;99.90
26909;DHT22;14477;51.038;4.588;2023-04-25T08:16:35;13.00;99.90
26909;DHT22;14477;51.038;4.588;2023-04-25T08:19:01;13.10;99.90
26909;DHT22;14477;51.038;4.588;2023-04-25T08:21:27;13.30;99.90
26909;DHT22;14477;51.038;4.588;2023-04-25T08:23:53;13.50;99.90
26909;DHT22;14477;51.038;4.588;2023-04-25T08:26:18;13.50;99.90
26909;DHT22;14477;51.038;4.588;2023-04-25T08:28:44;13.80;99.90
26909;DHT22;14477;51.038;4.588;2023-04-25T08:31:09;14.10;99.90
26909;DHT22;14477;51.038;4.588;2023-04-25T08:33:35;14.60;99.90
26909;DHT22;14477;51.038;4.588;2023-04-25T08:36:01;15.10;99.90
26909;DHT22;14477;51.038;4.588;2023-04-25T08:38:28;15.80;99.90
26909;DHT22;14477;51.038;4.588;2023-04-25T08:40:54;16.40;99.90
26909;DHT22;14477;51.038;4.588;2023-04-25T08:43:20;16.80;99.90
26909;DHT22;14477;51.038;4.588;2023-04-25T08:45:47;17.00;99.90
26909;DHT22;14477;51.038;4.588;2023-04-25T08:48:15;17.10;99.90
26909;DHT22;14477;51.038;4.588;2023-04-25T08:50:54;17.00;99.90
26909;DHT22;14477;51.038;4.588;2023-04-25T08:53:32;16.90;99.10
26909;DHT22;14477;51.038;4.588;2023-04-25T08:55:59;16.60;98.70
26909;DHT22;14477;51.038;4.588;2023-04-25T08:58:25;16.30;99.90
26909;DHT22;14477;51.038;4.588;2023-04-25T09:00:52;16.10;99.90
26909;DHT22;14477;51.038;4.588;2023-04-25T09:03:18;15.80;99.90
26909;DHT22;14477;51.038;4.588;2023-04-25T09:05:44;15.60;99.90
26909;DHT22;14477;51.038;4.588;2023-04-25T09:08:10;15.30;99.90
26909;DHT22;14477;51.038;4.588;2023-04-25T09:10:36;15.20;99.90
26909;DHT22;14477;51.038;4.588;2023-04-25T09:13:13;15.10;99.90
26909;DHT22;14477;51.038;4.588;2023-04-25T09:15:54;15.00;99.90
26909;DHT22;14477;51.038;4.588;2023-04-25T09:18:28;15.00;99.90
26909;DHT22;14477;51.038;4.588;2023-04-25T09:20:55;15.20;99.90
26909;DHT22;14477;51.038;4.588;2023-04-25T09:23:22;15.50;99.90
26909;DHT22;14477;51.038;4.588;2023-04-25T09:25:52;16.00;99.90
26909;DHT22;14477;51.038;4.588;2023-04-25T09:28:26;16.60;99.90
26909;DHT22;14477;51.038;4.588;2023-04-25T09:30:56;17.30;99.90
26909;DHT22;14477;51.038;4.588;2023-04-25T09:33:29;17.80;99.90
26909;DHT22;14477;51.038;4.588;2023-04-25T09:36:08;18.30;99.90
26909;DHT22;14477;51.038;4.588;2023-04-25T09:38:44;18.80;99.90
26909;DHT22;14477;51.038;4.588;2023-04-25T09:41:11;19.30;99.90
26909;DHT22;14477;51.038;4.588;2023-04-25T09:43:38;19.70;99.90
26909;DHT22;14477;51.038;4.588;2023-04-25T09:46:09;20.10;99.90
26909;DHT22;14477;51.038;4.588;2023-04-25T09:48:35;20.40;99.90
26909;DHT22;14477;51.038;4.588;2023-04-25T09:53:29;20.60;99.90
26909;DHT22;14477;51.038;4.588;2023-04-25T09:55:56;20.70;99.90
26909;DHT22;14477;51.038;4.588;2023-04-25T09:58:24;20.50;99.70
26909;DHT22;14477;51.038;4.588;2023-04-25T10:00:54;20.30;98.50
26909;DHT22;14477;51.038;4.588;2023-04-25T10:03:24;20.20;98.50
26909;DHT22;14477;51.038;4.588;2023-04-25T10:05:50;20.10;99.90
26909;DHT22;14477;51.038;4.588;2023-04-25T10:08:18;20.20;99.90
26909;DHT22;14477;51.038;4.588;2023-04-25T10:10:46;20.40;99.90
26909;DHT22;14477;51.038;4.588;2023-04-25T10:13:12;20.70;99.90
26909;DHT22;14477;51.038;4.588;2023-04-25T10:15:40;21.00;99.90
26909;DHT22;14477;51.038;4.588;2023-04-25T10:18:07;21.20;99.90
26909;DHT22;14477;51.038;4.588;2023-04-25T10:20:33;21.40;99.90
26909;DHT22;14477;51.038;4.588;2023-04-25T10:23:06;21.50;99.90
26909;DHT22;14477;51.038;4.588;2023-04-25T10:25:36;21.50;99.10
26909;DHT22;14477;51.038;4.588;2023-04-25T10:28:03;21.40;99.50
26909;DHT22;14477;51.038;4.588;2023-04-25T10:30:29;21.20;98.30
26909;DHT22;14477;51.038;4.588;2023-04-25T10:32:55;21.00;98.30
26909;DHT22;14477;51.038;4.588;2023-04-25T10:35:26;20.70;98.10
26909;DHT22;14477;51.038;4.588;2023-04-25T10:40:25;20.20;95.30
26909;DHT22;14477;51.038;4.588;2023-04-25T10:42:55;19.90;97.30
26909;DHT22;14477;51.038;4.588;2023-04-25T10:45:21;19.60;96.70
26909;DHT22;14477;51.038;4.588;2023-04-25T10:47:47;19.40;98.30
26909;DHT22;14477;51.038;4.588;2023-04-25T10:50:17;19.20;98.70
26909;DHT22;14477;51.038;4.588;2023-04-25T10:52:43;19.10;97.80
26909;DHT22;14477;51.038;4.588;2023-04-25T10:55:10;19.00;99.60
26909;DHT22;14477;51.038;4.588;2023-04-25T10:57:45;18.90;99.90
26909;DHT22;14477;51.038;4.588;2023-04-25T11:00:17;18.90;97.90
26909;DHT22;14477;51.038;4.588;2023-04-25T11:02:44;18.90;99.30
26909;DHT22;14477;51.038;4.588;2023-04-25T11:05:20;18.90;99.90
26909;DHT22;14477;51.038;4.588;2023-04-25T11:07:53;19.00;98.90
26909;DHT22;14477;51.038;4.588;2023-04-25T11:10:25;19.00;99.90
26909;DHT22;14477;51.038;4.588;2023-04-25T11:12:51;19.10;99.90
26909;DHT22;14477;51.038;4.588;2023-04-25T11:15:17;19.30;99.90
26909;DHT22;14477;51.038;4.588;2023-04-25T11:17:43;19.50;99.90
26909;DHT22;14477;51.038;4.588;2023-04-25T11:20:12;19.70;99.90
26909;DHT22;14477;51.038;4.588;2023-04-25T11:22:39;19.90;99.90
26909;DHT22;14477;51.038;4.588;2023-04-25T11:25:09;20.10;99.90
26909;DHT22;14477;51.038;4.588;2023-04-25T11:27:38;20.20;99.90
26909;DHT22;14477;51.038;4.588;2023-04-25T11:30:12;20.20;99.60
26909;DHT22;14477;51.038;4.588;2023-04-25T11:32:39;20.20;98.90
26909;DHT22;14477;51.038;4.588;2023-04-25T11:35:06;20.30;99.90
26909;DHT22;14477;51.038;4.588;2023-04-25T11:37:32;20.50;99.90
26909;DHT22;14477;51.038;4.588;2023-04-25T11:40:00;20.70;99.90
26909;DHT22;14477;51.038;4.588;2023-04-25T11:42:26;20.90;99.90
26909;DHT22;14477;51.038;4.588;2023-04-25T11:44:52;21.10;99.90
26909;DHT22;14477;51.038;4.588;2023-04-25T11:47:18;21.40;99.90
26909;DHT22;14477;51.038;4.588;2023-04-25T11:49:43;21.60;99.90
26909;DHT22;14477;51.038;4.588;2023-04-25T11:52:09;21.70;99.90
26909;DHT22;14477;51.038;4.588;2023-04-25T11:54:36;21.80;99.90
26909;DHT22;14477;51.038;4.588;2023-04-25T11:57:02;21.90;99.90
26909;DHT22;14477;51.038;4.588;2023-04-25T11:59:28;21.80;98.60
26909;DHT22;14477;51.038;4.588;2023-04-25T12:01:54;21.70;97.60
26909;DHT22;14477;51.038;4.588;2023-04-25T12:04:22;21.60;97.60
26909;DHT22;14477;51.038;4.588;2023-04-25T12:06:51;21.50;98.70
26909;DHT22;14477;51.038;4.588;2023-04-25T12:09:28;21.60;98.50
26909;DHT22;14477;51.038;4.588;2023-04-25T12:11:56;21.70;98.80
26909;DHT22;14477;51.038;4.588;2023-04-25T12:14:23;21.80;99.90
26909;DHT22;14477;51.038;4.588;2023-04-25T12:16:50;22.10;99.90
26909;DHT22;14477;51.038;4.588;2023-04-25T12:19:20;22.40;99.90
26909;DHT22;14477;51.038;4.588;2023-04-25T12:21:47;22.70;99.90
26909;DHT22;14477;51.038;4.588;2023-04-25T12:24:15;22.90;99.60
26909;DHT22;14477;51.038;4.588;2023-04-25T12:27:00;23.00;97.10
26909;DHT22;14477;51.038;4.588;2023-04-25T12:29:29;22.80;92.90
26909;DHT22;14477;51.038;4.588;2023-04-25T12:31:55;22.50;95.30
26909;DHT22;14477;51.038;4.588;2023-04-25T12:34:22;22.30;95.10
26909;DHT22;14477;51.038;4.588;2023-04-25T12:36:49;22.10;94.90
26909;DHT22;14477;51.038;4.588;2023-04-25T12:39:20;21.70;95.00
26909;DHT22;14477;51.038;4.588;2023-04-25T12:41:48;21.40;94.30
26909;DHT22;14477;51.038;4.588;2023-04-25T12:44:14;21.20;95.50
26909;DHT22;14477;51.038;4.588;2023-04-25T12:46:40;20.90;95.00
26909;DHT22;14477;51.038;4.588;2023-04-25T12:49:07;20.70;95.60
26909;DHT22;14477;51.038;4.588;2023-04-25T12:51:34;20.60;97.00
26909;DHT22;14477;51.038;4.588;2023-04-25T12:54:00;20.70;99.10
26909;DHT22;14477;51.038;4.588;2023-04-25T12:56:27;20.80;99.70
26909;DHT22;14477;51.038;4.588;2023-04-25T12:58:53;21.10;99.90
26909;DHT22;14477;51.038;4.588;2023-04-25T13:01:20;21.40;99.90
26909;DHT22;14477;51.038;4.588;2023-04-25T13:03:46;21.70;99.90
26909;DHT22;14477;51.038;4.588;2023-04-25T13:06:13;22.10;99.90
26909;DHT22;14477;51.038;4.588;2023-04-25T13:08:39;22.50;99.90
26909;DHT22;14477;51.038;4.588;2023-04-25T13:11:05;22.90;99.90
26909;DHT22;14477;51.038;4.588;2023-04-25T13:13:31;23.20;99.90
26909;DHT22;14477;51.038;4.588;2023-04-25T13:16:02;23.60;99.90
26909;DHT22;14477;51.038;4.588;2023-04-25T13:18:31;24.00;99.90
26909;DHT22;14477;51.038;4.588;2023-04-25T13:20:57;24.40;99.90
26909;DHT22;14477;51.038;4.588;2023-04-25T13:23:25;24.80;99.90
26909;DHT22;14477;51.038;4.588;2023-04-25T13:25:51;25.00;99.50
26909;DHT22;14477;51.038;4.588;2023-04-25T13:28:17;25.10;97.80
26909;DHT22;14477;51.038;4.588;2023-04-25T13:30:43;25.00;96.20
26909;DHT22;14477;51.038;4.588;2023-04-25T13:33:09;24.90;96.90
26909;DHT22;14477;51.038;4.588;2023-04-25T13:35:36;24.90;97.40
26909;DHT22;14477;51.038;4.588;2023-04-25T13:38:02;25.00;97.80
26909;DHT22;14477;51.038;4.588;2023-04-25T13:40:28;25.00;97.90
26909;DHT22;14477;51.038;4.588;2023-04-25T13:42:55;25.10;98.10
26909;DHT22;14477;51.038;4.588;2023-04-25T13:45:21;25.20;98.00
26909;DHT22;14477;51.038;4.588;2023-04-25T13:47:47;25.30;98.10
26909;DHT22;14477;51.038;4.588;2023-04-25T13:50:13;25.40;97.30
26909;DHT22;14477;51.038;4.588;2023-04-25T13:52:39;25.40;96.30
26909;DHT22;14477;51.038;4.588;2023-04-25T13:55:06;25.20;94.50
26909;DHT22;14477;51.038;4.588;2023-04-25T13:57:33;25.00;93.20
26909;DHT22;14477;51.038;4.588;2023-04-25T14:00:00;24.60;92.60
26909;DHT22;14477;51.038;4.588;2023-04-25T14:02:30;24.30;92.60
26909;DHT22;14477;51.038;4.588;2023-04-25T14:04:56;23.90;92.40
26909;DHT22;14477;51.038;4.588;2023-04-25T14:07:21;23.60;92.30
26909;DHT22;14477;51.038;4.588;2023-04-25T14:09:47;23.20;91.90
26909;DHT22;14477;51.038;4.588;2023-04-25T14:12:13;22.80;92.10
26909;DHT22;14477;51.038;4.588;2023-04-25T14:14:39;22.50;92.40
26909;DHT22;14477;51.038;4.588;2023-04-25T14:17:05;22.10;92.20
26909;DHT22;14477;51.038;4.588;2023-04-25T14:19:31;21.90;92.90
26909;DHT22;14477;51.038;4.588;2023-04-25T14:21:57;21.70;93.80
26909;DHT22;14477;51.038;4.588;2023-04-25T14:24:23;21.60;93.70
26909;DHT22;14477;51.038;4.588;2023-04-25T14:26:49;21.40;93.00
26909;DHT22;14477;51.038;4.588;2023-04-25T14:29:15;21.20;92.60
26909;DHT22;14477;51.038;4.588;2023-04-25T14:31:41;20.90;92.70
26909;DHT22;14477;51.038;4.588;2023-04-25T14:34:07;20.70;93.00
26909;DHT22;14477;51.038;4.588;2023-04-25T14:36:33;20.50;93.60
26909;DHT22;14477;51.038;4.588;2023-04-25T14:38:59;20.50;94.40
26909;DHT22;14477;51.038;4.588;2023-04-25T14:41:25;20.40;94.60
26909;DHT22;14477;51.038;4.588;2023-04-25T14:43:52;20.40;94.00
26909;DHT22;14477;51.038;4.588;2023-04-25T14:46:22;20.30;93.50
26909;DHT22;14477;51.038;4.588;2023-04-25T14:48:48;20.10;93.40
26909;DHT22;14477;51.038;4.588;2023-04-25T14:51:14;20.00;93.60
26909;DHT22;14477;51.038;4.588;2023-04-25T14:53:41;19.80;93.70
26909;DHT22;14477;51.038;4.588;2023-04-25T14:56:06;19.80;93.70
26909;DHT22;14477;51.038;4.588;2023-04-25T14:58:33;19.70;93.80
26909;DHT22;14477;51.038;4.588;2023-04-25T15:00:59;19.60;93.80
26909;DHT22;14477;51.038;4.588;2023-04-25T15:03:25;19.50;93.50
26909;DHT22;14477;51.038;4.588;2023-04-25T15:05:50;19.50;93.60
26909;DHT22;14477;51.038;4.588;2023-04-25T15:08:16;19.40;93.60
26909;DHT22;14477;51.038;4.588;2023-04-25T15:10:42;19.30;93.50
26909;DHT22;14477;51.038;4.588;2023-04-25T15:13:08;19.20;93.40
26909;DHT22;14477;51.038;4.588;2023-04-25T15:15:35;19.20;93.90
26909;DHT22;14477;51.038;4.588;2023-04-25T15:18:02;19.20;94.30
26909;DHT22;14477;51.038;4.588;2023-04-25T15:20:28;19.20;94.00
26909;DHT22;14477;51.038;4.588;2023-04-25T15:22:54;19.20;94.00
26909;DHT22;14477;51.038;4.588;2023-04-25T15:25:20;19.20;93.60
26909;DHT22;14477;51.038;4.588;2023-04-25T15:27:46;19.10;93.50
26909;DHT22;14477;51.038;4.588;2023-04-25T15:30:17;19.00;93.30
26909;DHT22;14477;51.038;4.588;2023-04-25T15:32:47;18.90;92.00